Time;durP1;ratioP1;P1;durP2;ratioP2;P2;SDS_P1;SDS_P2;PMS_P1;PMS_P2;Temp;Humidity;BMP_temperature;BMP_pressure;BME280_temperature;BME280_humidity;BME280_pressure;Samples;Min_cycle;Max_cycle;Signal;HPM_P1;HPM_P2
2021/12/10 00:01:36;;;;;;;5.60;3.10;;;2.00;99.90;;;;;;5018376;28;20182;-89
2021/12/10 00:04:03;;;;;;;5.40;2.87;;;1.90;99.90;;;;;;5018112;28;20220;-89
2021/12/10 00:06:40;;;;;;;5.83;2.83;;;1.90;99.90;;;;;;5018273;28;20323;-89
2021/12/10 00:09:28;;;;;;;5.97;2.70;;;1.80;99.90;;;;;;5018073;28;20302;-89
2021/12/10 00:12:08;;;;;;;3.80;2.33;;;1.80;99.90;;;;;;5018388;28;20273;-89
2021/12/10 00:14:36;;;;;;;5.60;2.80;;;1.70;99.90;;;;;;5018133;28;20178;-89
2021/12/10 00:17:05;;;;;;;8.67;3.27;;;1.60;99.90;;;;;;5004794;28;20191;-89
2021/12/10 00:19:39;;;;;;;10.33;4.80;;;1.60;99.90;;;;;;5014017;28;20229;-89
2021/12/10 00:22:22;;;;;;;8.90;4.87;;;1.50;99.90;;;;;;4998271;28;20185;-88
2021/12/10 00:24:50;;;;;;;7.23;4.50;;;1.50;99.90;;;;;;5002783;28;20170;-89
2021/12/10 00:27:26;;;;;;;10.67;5.10;;;1.40;99.90;;;;;;5017704;28;20179;-89
2021/12/10 00:29:53;;;;;;;6.83;3.73;;;1.50;99.90;;;;;;5034185;28;20194;-89
2021/12/10 00:32:39;;;;;;;4.50;2.90;;;1.50;99.90;;;;;;5017828;28;20179;-89
2021/12/10 00:35:11;;;;;;;3.80;2.30;;;1.50;99.90;;;;;;5017472;28;20288;-89
2021/12/10 00:37:37;;;;;;;6.47;2.60;;;1.50;99.90;;;;;;5017547;28;20228;-89
2021/12/10 00:40:07;;;;;;;5.30;2.00;;;1.50;99.90;;;;;;5017375;28;20230;-89
2021/12/10 00:42:34;;;;;;;5.13;2.30;;;1.50;99.90;;;;;;5017400;28;20190;-89
2021/12/10 00:45:03;;;;;;;7.73;2.27;;;1.50;99.90;;;;;;5017409;28;20182;-89
2021/12/10 00:47:29;;;;;;;3.80;1.90;;;1.50;99.90;;;;;;5018087;28;20178;-89
2021/12/10 00:49:55;;;;;;;4.80;2.20;;;1.50;99.90;;;;;;5017314;28;20201;-89
2021/12/10 00:52:22;;;;;;;4.37;1.90;;;1.50;99.90;;;;;;5017314;28;20218;-89
2021/12/10 00:54:49;;;;;;;6.07;2.03;;;1.50;99.90;;;;;;5033691;28;20187;-89
2021/12/10 00:57:15;;;;;;;4.47;2.17;;;1.40;99.90;;;;;;5017022;28;20179;-89
2021/12/10 00:59:44;;;;;;;5.67;2.03;;;1.40;99.90;;;;;;5017156;28;20291;-89
2021/12/10 01:02:12;;;;;;;4.67;1.73;;;1.40;99.90;;;;;;5017275;28;20178;-89
2021/12/10 01:04:41;;;;;;;5.77;1.70;;;1.40;99.90;;;;;;5017161;28;20175;-88
2021/12/10 01:07:10;;;;;;;3.13;1.53;;;1.40;99.90;;;;;;5016359;28;20197;-89
2021/12/10 01:09:40;;;;;;;6.80;2.13;;;1.30;99.90;;;;;;5016726;28;20221;-89
2021/12/10 01:12:19;;;;;;;4.43;1.60;;;1.30;99.90;;;;;;5016878;28;20183;-89
2021/12/10 01:26:53;;;;;;;6.43;1.70;;;1.10;99.90;;;;;;5033046;28;20177;-89
2021/12/10 01:29:24;;;;;;;3.80;1.87;;;1.00;99.90;;;;;;5016396;28;20206;-89
2021/12/10 01:31:52;;;;;;;8.13;2.10;;;1.00;99.90;;;;;;5016647;28;20182;-88
2021/12/10 01:34:18;;;;;;;3.90;1.90;;;0.90;99.90;;;;;;5016454;28;20190;-89
2021/12/10 01:36:45;;;;;;;4.10;2.00;;;0.80;99.90;;;;;;5015851;28;20195;-89
2021/12/10 01:39:18;;;;;;;3.73;2.07;;;0.70;99.90;;;;;;5016042;28;20289;-89
2021/12/10 01:41:53;;;;;;;6.83;2.13;;;0.70;99.90;;;;;;5016875;28;20169;-89
2021/12/10 01:44:28;;;;;;;5.13;2.40;;;0.60;99.90;;;;;;5033022;28;20173;-89
2021/12/10 01:46:56;;;;;;;3.90;2.10;;;0.60;99.90;;;;;;5016424;28;20177;-89
2021/12/10 01:49:22;;;;;;;4.37;1.90;;;0.50;99.90;;;;;;5016100;28;20213;-89
2021/12/10 01:51:48;;;;;;;4.83;2.00;;;0.50;99.90;;;;;;5016282;28;20191;-89
2021/12/10 01:54:20;;;;;;;5.63;2.10;;;0.40;99.90;;;;;;5016528;28;20186;-89
2021/12/10 01:56:47;;;;;;;3.77;1.80;;;0.40;99.90;;;;;;5016158;28;20331;-89
2021/12/10 01:59:15;;;;;;;4.27;2.07;;;0.40;99.90;;;;;;5015635;28;20213;-89
2021/12/10 02:01:48;;;;;;;5.70;1.70;;;0.40;99.90;;;;;;5016355;28;20181;-89
2021/12/10 02:04:17;;;;;;;6.07;1.93;;;0.40;99.90;;;;;;5016416;28;20529;-88
2021/12/10 02:06:44;;;;;;;6.70;1.90;;;0.40;99.90;;;;;;5032458;28;20182;-88
2021/12/10 02:09:13;;;;;;;6.20;1.80;;;0.40;99.90;;;;;;5015698;28;20210;-89
2021/12/10 02:11:39;;;;;;;5.23;1.70;;;0.30;99.90;;;;;;5015802;28;20189;-89
2021/12/10 02:14:05;;;;;;;7.73;1.90;;;0.20;99.90;;;;;;5015937;28;20188;-89
2021/12/10 02:16:32;;;;;;;5.87;2.17;;;0.20;99.90;;;;;;5016238;28;20187;-89
2021/12/10 02:18:58;;;;;;;4.40;2.23;;;0.20;99.90;;;;;;5015535;28;20629;-89
2021/12/10 02:21:26;;;;;;;5.17;1.80;;;0.20;99.90;;;;;;5015455;28;20181;-89
2021/12/10 02:23:57;;;;;;;3.60;2.13;;;0.20;99.90;;;;;;5016048;28;20189;-89
2021/12/10 02:26:27;;;;;;;3.33;1.70;;;0.20;99.90;;;;;;5016005;28;20176;-89
2021/12/10 02:28:53;;;;;;;3.20;1.60;;;0.20;99.90;;;;;;5015598;28;20200;-89
2021/12/10 02:31:20;;;;;;;3.83;1.70;;;0.20;99.90;;;;;;5016025;28;20177;-89
2021/12/10 02:33:46;;;;;;;3.20;1.50;;;0.30;99.90;;;;;;5016155;28;20176;-89
2021/12/10 02:36:12;;;;;;;4.10;1.50;;;0.20;99.90;;;;;;5015713;28;20201;-89
2021/12/10 02:38:42;;;;;;;6.40;1.80;;;0.20;99.90;;;;;;5015380;28;20669;-89
2021/12/10 02:41:08;;;;;;;5.03;1.80;;;0.20;99.90;;;;;;5015944;28;20187;-89
2021/12/10 02:43:35;;;;;;;1.90;1.40;;;0.20;99.90;;;;;;5015975;28;20227;-89
2021/12/10 02:46:02;;;;;;;6.00;1.67;;;0.20;99.90;;;;;;5015655;28;20181;-89
2021/12/10 02:48:27;;;;;;;4.87;1.80;;;0.20;99.90;;;;;;5019021;28;20245;-89
2021/12/10 02:50:55;;;;;;;3.13;1.93;;;0.10;99.90;;;;;;5019559;28;20182;-89
2021/12/10 02:53:27;;;;;;;4.67;1.97;;;0.10;99.90;;;;;;5019906;28;20212;-89
2021/12/10 02:55:54;;;;;;;6.03;1.80;;;0.00;99.90;;;;;;5019449;28;20228;-89
2021/12/10 02:58:20;;;;;;;2.50;1.20;;;-0.20;99.90;;;;;;5019251;28;20216;-89
2021/12/10 03:01:07;;;;;;;2.67;1.57;;;-0.20;99.90;;;;;;5019343;28;20208;-89
2021/12/10 03:03:36;;;;;;;5.20;1.90;;;-0.10;99.90;;;;;;5019299;28;20582;-89
2021/12/10 03:06:09;;;;;;;3.17;1.60;;;-0.10;99.90;;;;;;5019572;28;20269;-89
2021/12/10 03:08:36;;;;;;;3.93;1.47;;;-0.20;99.90;;;;;;5035552;28;20246;-89
2021/12/10 03:11:02;;;;;;;4.40;1.33;;;-0.20;99.90;;;;;;5019560;28;20223;-89
2021/12/10 03:13:28;;;;;;;3.60;1.57;;;-0.20;99.90;;;;;;5035734;28;20192;-89
2021/12/10 03:15:54;;;;;;;3.70;1.53;;;-0.20;99.90;;;;;;5035582;28;20244;-89
2021/12/10 03:18:21;;;;;;;4.13;1.60;;;-0.30;99.90;;;;;;5019214;28;20196;-89
2021/12/10 03:21:11;;;;;;;8.03;2.33;;;-0.30;99.90;;;;;;5018195;28;20223;-89
2021/12/10 03:23:43;;;;;;;4.53;1.63;;;-0.30;99.90;;;;;;5019234;28;20639;-89
2021/12/10 03:26:11;;;;;;;4.80;1.70;;;-0.40;99.90;;;;;;5019461;28;20165;-89
2021/12/10 03:28:40;;;;;;;4.83;1.60;;;-0.30;99.90;;;;;;5018807;28;20249;-89
2021/12/10 03:31:06;;;;;;;5.97;1.67;;;-0.30;99.90;;;;;;5018874;28;20190;-89
2021/12/10 03:33:33;;;;;;;3.50;1.67;;;-0.30;99.90;;;;;;5035145;28;20215;-88
2021/12/10 03:35:59;;;;;;;3.83;1.60;;;-0.30;99.90;;;;;;5018707;28;20195;-89
2021/12/10 03:38:26;;;;;;;4.60;1.70;;;-0.30;99.90;;;;;;5035609;28;20203;-89
2021/12/10 03:40:53;;;;;;;2.73;1.50;;;-0.30;99.90;;;;;;5018541;28;20211;-89
2021/12/10 03:43:21;;;;;;;4.57;1.77;;;-0.20;99.90;;;;;;5018603;28;20234;-89
2021/12/10 03:45:51;;;;;;;4.80;1.83;;;-0.30;99.90;;;;;;5018530;28;20276;-89
2021/12/10 03:48:21;;;;;;;5.27;2.03;;;-0.30;99.90;;;;;;5018695;28;20200;-89
2021/12/10 03:50:48;;;;;;;7.60;2.07;;;-0.30;99.90;;;;;;5034802;28;20179;-89
2021/12/10 03:53:17;;;;;;;4.17;1.43;;;-0.30;99.90;;;;;;5018576;28;20187;-89
2021/12/10 03:55:43;;;;;;;3.50;1.50;;;-0.40;99.90;;;;;;5018653;28;20186;-89
2021/12/10 03:58:10;;;;;;;4.30;1.43;;;-0.50;99.90;;;;;;5017753;28;20573;-89
2021/12/10 04:00:44;;;;;;;5.73;1.73;;;-0.50;99.90;;;;;;5017793;28;20280;-89
2021/12/10 04:03:11;;;;;;;5.30;1.90;;;-0.60;99.90;;;;;;5018276;28;20180;-88
2021/12/10 04:05:37;;;;;;;3.13;1.77;;;-0.60;99.90;;;;;;5018370;28;20181;-89
2021/12/10 04:08:04;;;;;;;3.20;1.67;;;-0.70;99.90;;;;;;5017652;28;20196;-89
2021/12/10 04:11:06;;;;;;;5.90;1.90;;;-0.70;99.90;;;;;;5017836;28;20186;-89
2021/12/10 04:13:33;;;;;;;6.03;2.00;;;-0.70;99.90;;;;;;5018439;28;20178;-89
2021/12/10 04:15:59;;;;;;;7.67;2.07;;;-0.80;99.90;;;;;;5018424;28;20302;-88
2021/12/10 04:18:25;;;;;;;4.30;1.80;;;-0.80;99.90;;;;;;5018070;28;20267;-89
2021/12/10 04:20:51;;;;;;;3.13;1.87;;;-0.80;99.90;;;;;;5018077;28;20260;-89
2021/12/10 04:23:19;;;;;;;4.57;2.40;;;-0.80;99.90;;;;;;5017830;28;20175;-89
2021/12/10 04:25:46;;;;;;;5.03;1.67;;;-0.90;99.90;;;;;;5017649;28;20206;-89
2021/12/10 04:28:16;;;;;;;4.40;1.90;;;-0.90;99.90;;;;;;5017765;28;20194;-89
2021/12/10 04:30:45;;;;;;;3.73;2.17;;;-0.90;99.90;;;;;;5017944;28;20190;-89
2021/12/10 04:33:15;;;;;;;8.77;2.03;;;-1.00;99.90;;;;;;5018277;28;20337;-89
2021/12/10 04:35:43;;;;;;;6.03;4.30;;;-1.00;99.90;;;;;;5018398;28;20205;-89
2021/12/10 04:38:09;;;;;;;6.93;3.33;;;-1.10;99.90;;;;;;5017435;28;20279;-89
2021/12/10 04:40:35;;;;;;;7.63;3.00;;;-1.00;99.90;;;;;;5018173;28;20202;-89
2021/12/10 04:43:02;;;;;;;8.83;2.20;;;-1.00;99.90;;;;;;5018468;28;20269;-89
2021/12/10 04:45:28;;;;;;;5.37;1.80;;;-0.90;99.90;;;;;;5017189;28;20629;-89
2021/12/10 04:47:54;;;;;;;4.53;1.93;;;-0.90;99.90;;;;;;5014992;28;20552;-89
2021/12/10 04:50:24;;;;;;;4.47;1.80;;;-0.90;99.90;;;;;;5013782;28;20191;-88
2021/12/10 04:53:04;;;;;;;8.17;2.37;;;-0.80;99.90;;;;;;5014881;28;20179;-88
2021/12/10 04:55:30;;;;;;;3.90;2.23;;;-0.90;99.90;;;;;;5014909;28;20274;-88
2021/12/10 04:57:56;;;;;;;3.97;1.93;;;-0.90;99.90;;;;;;5015008;28;20204;-89
2021/12/10 05:00:30;;;;;;;6.47;2.47;;;-1.00;99.90;;;;;;5013392;28;20242;-89
2021/12/10 05:03:00;;;;;;;4.43;2.37;;;-1.00;99.90;;;;;;5014760;28;20198;-89
2021/12/10 05:05:27;;;;;;;5.23;2.50;;;-0.90;99.90;;;;;;5019599;28;20178;-89
2021/12/10 05:07:54;;;;;;;4.30;2.90;;;-0.90;99.90;;;;;;5017121;28;20706;-89
2021/12/10 05:10:25;;;;;;;4.13;3.10;;;-0.90;99.90;;;;;;5016907;28;20551;-89
2021/12/10 05:12:51;;;;;;;7.17;3.13;;;-0.90;99.90;;;;;;5017602;28;20225;-89
2021/12/10 05:15:20;;;;;;;4.77;4.17;;;-0.90;99.90;;;;;;5017793;28;20187;-89
2021/12/10 05:17:49;;;;;;;6.77;2.87;;;-1.00;99.90;;;;;;5016913;28;20195;-89
2021/12/10 05:20:19;;;;;;;3.93;2.60;;;-1.00;99.90;;;;;;5034192;28;20261;-89
2021/12/10 05:22:48;;;;;;;4.47;2.23;;;-1.00;99.90;;;;;;5016862;28;20179;-89
2021/12/10 05:25:15;;;;;;;2.90;2.00;;;-1.10;99.90;;;;;;5016544;28;20232;-89
2021/12/10 05:27:42;;;;;;;4.07;2.27;;;-1.10;99.90;;;;;;4997704;28;20176;-88
2021/12/10 05:30:12;;;;;;;4.20;2.37;;;-1.20;99.90;;;;;;5003684;28;20206;-89
2021/12/10 05:32:38;;;;;;;6.13;2.53;;;-1.10;99.90;;;;;;5017434;28;20178;-89
2021/12/10 05:35:06;;;;;;;5.07;2.30;;;-1.10;99.90;;;;;;5016549;28;20195;-89
2021/12/10 05:37:32;;;;;;;5.23;2.53;;;-1.10;99.90;;;;;;5016926;28;20180;-89
2021/12/10 05:39:58;;;;;;;3.37;2.37;;;-1.10;99.90;;;;;;5009002;28;20206;-89
2021/12/10 05:42:24;;;;;;;7.23;2.80;;;-1.10;99.90;;;;;;5003054;28;20175;-89
2021/12/10 05:44:51;;;;;;;5.67;3.40;;;-1.20;99.90;;;;;;5033621;28;20221;-89
2021/12/10 05:47:18;;;;;;;6.67;3.00;;;-1.20;99.90;;;;;;5033653;28;20182;-89
2021/12/10 05:49:44;;;;;;;6.10;2.70;;;-1.20;99.90;;;;;;5016169;28;20191;-89
2021/12/10 05:52:11;;;;;;;5.67;3.30;;;-1.20;99.90;;;;;;5013320;28;20197;-89
2021/12/10 05:54:37;;;;;;;5.13;2.63;;;-1.20;99.90;;;;;;5013665;28;20246;-89
2021/12/10 05:57:04;;;;;;;4.00;2.27;;;-1.20;99.90;;;;;;5033310;28;20220;-89
2021/12/10 05:59:30;;;;;;;8.20;2.33;;;-1.20;99.90;;;;;;5015489;28;20252;-89
2021/12/10 06:02:05;;;;;;;3.93;2.70;;;-1.20;99.90;;;;;;5011487;28;20180;-89
2021/12/10 06:05:07;;;;;;;4.47;2.43;;;-1.30;99.90;;;;;;5015190;28;20206;-89
2021/12/10 06:07:34;;;;;;;7.33;2.87;;;-1.30;99.90;;;;;;5019097;28;20313;-89
2021/12/10 06:10:01;;;;;;;3.27;2.17;;;-1.30;99.90;;;;;;5016278;28;20175;-89
2021/12/10 06:12:27;;;;;;;8.17;2.83;;;-1.30;99.90;;;;;;5016157;28;20199;-88
2021/12/10 06:14:53;;;;;;;5.50;2.30;;;-1.30;99.90;;;;;;5016216;28;20194;-88
2021/12/10 06:17:19;;;;;;;4.80;2.50;;;-1.40;99.90;;;;;;5016181;28;20197;-88
2021/12/10 06:19:44;;;;;;;5.83;2.80;;;-1.40;99.90;;;;;;5015720;28;20217;-88
2021/12/10 06:22:10;;;;;;;7.13;2.60;;;-1.40;99.90;;;;;;5015705;28;20178;-88
2021/12/10 06:24:36;;;;;;;3.87;2.57;;;-1.30;99.90;;;;;;5016185;28;20175;-88
2021/12/10 06:27:03;;;;;;;5.00;2.70;;;-1.30;99.90;;;;;;5016252;28;20187;-89
2021/12/10 06:29:29;;;;;;;6.60;2.90;;;-1.30;99.90;;;;;;5016361;28;20290;-89
2021/12/10 06:31:55;;;;;;;6.20;3.70;;;-1.20;99.90;;;;;;5015883;28;20265;-88
2021/12/10 06:34:22;;;;;;;9.80;4.00;;;-1.20;99.90;;;;;;5032210;28;20624;-88
2021/12/10 06:36:48;;;;;;;8.37;4.60;;;-1.20;99.90;;;;;;5016256;28;20549;-88
2021/12/10 06:39:20;;;;;;;8.60;5.00;;;-1.20;99.90;;;;;;5016962;28;20210;-88
2021/12/10 06:41:55;;;;;;;13.53;6.43;;;-1.10;99.90;;;;;;5014421;28;20206;-88
2021/12/10 06:44:22;;;;;;;8.93;4.97;;;-1.10;99.90;;;;;;5015976;28;20183;-88
2021/12/10 06:46:50;;;;;;;6.93;4.60;;;-1.20;99.90;;;;;;5014865;28;20186;-88
2021/12/10 06:49:18;;;;;;;12.07;6.20;;;-1.20;99.90;;;;;;5015123;28;20230;-88
2021/12/10 06:51:44;;;;;;;9.83;4.43;;;-1.20;99.90;;;;;;5032291;28;20179;-90
2021/12/10 06:54:10;;;;;;;6.60;3.37;;;-1.20;99.90;;;;;;5015287;28;20174;-88
2021/12/10 06:56:37;;;;;;;5.87;3.20;;;-1.20;99.90;;;;;;5031905;28;20179;-88
2021/12/10 06:59:07;;;;;;;7.17;3.70;;;-1.30;99.90;;;;;;5015301;28;20214;-88
2021/12/10 07:01:36;;;;;;;6.47;3.53;;;-1.50;99.90;;;;;;5015303;28;20541;-89
2021/12/10 07:04:05;;;;;;;6.57;3.60;;;-1.50;99.90;;;;;;5015374;28;20179;-88
2021/12/10 07:06:31;;;;;;;7.67;3.70;;;-1.50;99.90;;;;;;5012893;28;20190;-88
2021/12/10 07:08:59;;;;;;;7.60;3.90;;;-1.50;99.90;;;;;;5011814;28;20206;-88
2021/12/10 07:11:26;;;;;;;6.27;3.73;;;-1.50;99.90;;;;;;4995725;28;20191;-88
2021/12/10 07:13:55;;;;;;;6.53;3.37;;;-1.50;99.90;;;;;;5012370;28;20180;-88
2021/12/10 07:16:23;;;;;;;4.97;3.17;;;-1.50;99.90;;;;;;5012165;28;20695;-88
2021/12/10 07:18:51;;;;;;;6.90;3.47;;;-1.50;99.90;;;;;;5011947;28;20199;-88
2021/12/10 07:21:20;;;;;;;5.03;3.47;;;-1.50;99.90;;;;;;5012335;28;20211;-88
2021/12/10 07:23:47;;;;;;;8.07;3.93;;;-1.50;99.90;;;;;;5012407;28;20175;-88
2021/12/10 07:26:15;;;;;;;9.23;4.10;;;-1.60;99.90;;;;;;5012455;28;20203;-87
2021/12/10 07:28:41;;;;;;;6.30;4.00;;;-1.60;99.90;;;;;;5014859;28;20194;-88
2021/12/10 07:31:08;;;;;;;6.50;3.80;;;-1.60;99.90;;;;;;5015378;28;20271;-88
2021/12/10 07:33:34;;;;;;;8.97;3.87;;;-1.60;99.90;;;;;;5033349;28;20185;-87
2021/12/10 07:36:01;;;;;;;11.67;4.13;;;-1.60;99.90;;;;;;5035854;28;20194;-88
2021/12/10 07:38:27;;;;;;;8.90;4.00;;;-1.60;99.90;;;;;;5018857;28;20206;-88
2021/12/10 07:40:53;;;;;;;6.10;4.23;;;-1.70;99.90;;;;;;5018823;28;20206;-88
2021/12/10 07:43:20;;;;;;;8.17;4.53;;;-1.60;99.90;;;;;;5028055;28;20182;-88
2021/12/10 07:45:48;;;;;;;8.27;5.00;;;-1.50;99.90;;;;;;5057461;28;20190;-88
2021/12/10 07:48:18;;;;;;;8.30;4.87;;;-1.50;99.90;;;;;;5018828;28;20194;-88
2021/12/10 07:50:53;;;;;;;8.23;4.80;;;-1.40;99.90;;;;;;5019048;28;20169;-88
2021/12/10 07:53:30;;;;;;;9.87;4.50;;;-1.30;99.90;;;;;;5018735;28;20197;-88
2021/12/10 07:56:00;;;;;;;9.27;5.00;;;-1.30;99.90;;;;;;5007723;28;20177;-87
2021/12/10 07:58:26;;;;;;;8.30;5.00;;;-1.20;99.90;;;;;;5019180;28;20699;-88
2021/12/10 08:00:52;;;;;;;6.47;4.37;;;-1.10;99.90;;;;;;5018089;28;20194;-87
2021/12/10 08:03:18;;;;;;;9.83;5.00;;;-1.10;99.90;;;;;;5019182;28;20175;-88
2021/12/10 08:05:45;;;;;;;10.83;5.33;;;-1.10;99.90;;;;;;5035148;28;20243;-88
2021/12/10 08:08:11;;;;;;;10.13;5.40;;;-1.00;99.90;;;;;;5018311;28;20567;-88
2021/12/10 08:10:39;;;;;;;9.53;4.90;;;-1.00;99.90;;;;;;5018184;28;20175;-88
2021/12/10 08:13:06;;;;;;;8.17;5.20;;;-1.00;99.90;;;;;;5018130;28;20207;-88
2021/12/10 08:15:33;;;;;;;8.60;5.10;;;-0.90;99.90;;;;;;5017158;28;20189;-88
2021/12/10 08:18:35;;;;;;;9.57;5.13;;;-0.90;99.90;;;;;;5017493;28;20253;-88
2021/12/10 08:21:02;;;;;;;8.67;6.10;;;-0.80;99.90;;;;;;5018028;28;20198;-88
2021/12/10 08:23:29;;;;;;;9.60;6.80;;;-0.80;99.90;;;;;;5018037;28;20186;-88
2021/12/10 08:25:55;;;;;;;10.80;6.67;;;-0.70;99.90;;;;;;5017972;28;20274;-88
2021/12/10 08:28:23;;;;;;;12.40;7.63;;;-0.60;99.90;;;;;;5016758;28;20330;-88
2021/12/10 08:30:50;;;;;;;13.80;8.77;;;-0.50;99.90;;;;;;5017215;28;20194;-88
2021/12/10 08:33:17;;;;;;;22.80;11.00;;;-0.50;99.90;;;;;;5034274;28;20271;-88
2021/12/10 08:35:47;;;;;;;16.27;9.43;;;-0.40;99.90;;;;;;5017323;28;20195;-87
2021/12/10 08:38:14;;;;;;;16.30;10.30;;;-0.30;99.90;;;;;;5033790;28;20211;-88
2021/12/10 08:40:48;;;;;;;12.60;9.03;;;-0.20;99.90;;;;;;5017767;28;20215;-92
2021/12/10 08:43:15;;;;;;;10.00;6.47;;;-0.20;99.90;;;;;;5017137;28;20175;-88
2021/12/10 08:45:52;;;;;;;9.57;5.47;;;-0.20;99.90;;;;;;5016418;28;20187;-88
2021/12/10 08:48:22;;;;;;;9.97;5.80;;;-0.10;99.90;;;;;;5016842;28;20280;-88
2021/12/10 08:50:50;;;;;;;9.87;6.07;;;-0.20;99.90;;;;;;5017233;28;20180;-88
2021/12/10 08:53:17;;;;;;;13.17;6.53;;;-0.20;99.90;;;;;;5017290;28;20218;-88
2021/12/10 08:55:50;;;;;;;10.37;6.73;;;-0.20;99.90;;;;;;5016063;28;20172;-88
2021/12/10 08:58:18;;;;;;;9.77;6.20;;;-0.20;99.90;;;;;;5035709;28;20227;-87
2021/12/10 09:00:48;;;;;;;12.47;6.03;;;-0.20;99.90;;;;;;5029670;28;20208;-87
2021/12/10 09:03:53;;;;;;;9.70;5.93;;;-0.10;99.90;;;;;;5031439;28;20268;-87
2021/12/10 09:06:33;;;;;;;9.10;6.10;;;0.00;99.90;;;;;;5018852;28;20180;-87
2021/12/10 09:08:59;;;;;;;12.30;5.93;;;0.00;99.90;;;;;;5012809;28;20200;-87
2021/12/10 09:11:39;;;;;;;9.77;5.57;;;0.10;99.90;;;;;;5025584;28;20175;-87
2021/12/10 09:14:07;;;;;;;9.60;5.77;;;0.10;99.90;;;;;;5030388;28;20222;-87
2021/12/10 09:16:37;;;;;;;9.03;5.80;;;0.20;99.90;;;;;;5025652;28;20188;-87
2021/12/10 09:19:07;;;;;;;10.00;5.13;;;0.20;99.90;;;;;;5016364;28;20261;-87
2021/12/10 09:21:36;;;;;;;8.00;5.13;;;0.30;99.90;;;;;;4997345;28;20200;-87
2021/12/10 09:24:20;;;;;;;8.27;5.67;;;0.30;99.90;;;;;;4997876;28;20177;-87
2021/12/10 09:26:52;;;;;;;9.40;6.20;;;0.40;99.90;;;;;;4997485;28;20199;-87
2021/12/10 09:29:18;;;;;;;11.73;7.53;;;0.50;99.90;;;;;;5013748;28;20198;-87
2021/12/10 09:31:45;;;;;;;9.50;7.73;;;0.60;99.90;;;;;;5008472;28;20182;-87
2021/12/10 09:34:13;;;;;;;11.30;7.87;;;0.60;99.90;;;;;;5016569;28;20193;-87
2021/12/10 09:36:41;;;;;;;12.80;6.97;;;0.70;99.90;;;;;;5000557;28;20178;-87
2021/12/10 09:39:10;;;;;;;10.80;7.23;;;0.70;99.90;;;;;;5015491;28;20197;-87
2021/12/10 09:41:36;;;;;;;7.50;5.00;;;0.80;99.90;;;;;;5014689;28;20182;-87
2021/12/10 09:44:03;;;;;;;7.90;5.20;;;0.80;99.90;;;;;;5033136;28;20173;-87
2021/12/10 09:46:30;;;;;;;9.60;4.67;;;0.90;99.90;;;;;;5033686;28;20196;-88
2021/12/10 09:48:56;;;;;;;10.63;5.03;;;0.90;99.90;;;;;;5032667;28;20205;-87
2021/12/10 09:51:33;;;;;;;8.03;5.07;;;0.90;99.90;;;;;;5032921;28;20190;-87
2021/12/10 09:54:04;;;;;;;8.13;5.13;;;1.00;99.90;;;;;;5033083;28;20184;-87
2021/12/10 09:56:31;;;;;;;10.17;5.63;;;1.00;99.90;;;;;;5032022;28;20186;-87
2021/12/10 09:58:57;;;;;;;10.80;6.00;;;1.00;99.90;;;;;;5032261;28;20208;-87
2021/12/10 10:01:30;;;;;;;8.83;4.97;;;1.00;99.90;;;;;;5032706;28;20208;-87
2021/12/10 10:04:01;;;;;;;5.97;4.40;;;1.00;99.90;;;;;;5032773;28;20169;-87
2021/12/10 10:06:30;;;;;;;8.13;5.00;;;0.90;99.90;;;;;;5032896;28;20523;-87
2021/12/10 10:08:56;;;;;;;8.47;4.90;;;0.90;99.90;;;;;;5032482;28;20198;-87
2021/12/10 10:11:26;;;;;;;9.27;5.10;;;0.90;99.90;;;;;;5032597;28;20188;-87
2021/12/10 10:13:54;;;;;;;10.23;5.13;;;0.80;99.90;;;;;;5032444;28;20232;-87
2021/12/10 10:16:22;;;;;;;7.17;4.80;;;0.90;99.90;;;;;;5032204;28;20650;-88
2021/12/10 10:18:49;;;;;;;9.30;5.30;;;0.90;99.90;;;;;;5015957;28;20209;-87
2021/12/10 10:21:21;;;;;;;8.00;4.63;;;0.90;99.90;;;;;;5015871;28;20216;-87
2021/12/10 10:23:48;;;;;;;7.17;4.07;;;0.90;99.90;;;;;;5015789;28;20201;-87
2021/12/10 10:26:25;;;;;;;6.40;3.80;;;0.90;99.90;;;;;;5032329;28;20268;-87
2021/12/10 10:28:52;;;;;;;7.03;3.93;;;1.00;99.90;;;;;;5015937;28;20201;-87
2021/12/10 10:31:22;;;;;;;5.90;3.97;;;1.10;99.90;;;;;;5016464;28;20185;-87
2021/12/10 10:33:52;;;;;;;6.53;4.07;;;1.10;99.90;;;;;;5015333;28;20192;-87
2021/12/10 10:36:23;;;;;;;6.60;4.30;;;1.20;99.90;;;;;;5016028;28;20197;-87
2021/12/10 10:38:53;;;;;;;5.13;3.40;;;1.20;99.90;;;;;;5016540;28;20203;-85
2021/12/10 10:41:23;;;;;;;5.80;3.53;;;1.20;99.90;;;;;;5032010;28;20684;-87
2021/12/10 10:43:52;;;;;;;5.87;3.77;;;1.30;99.90;;;;;;5032317;28;20185;-87
2021/12/10 10:46:21;;;;;;;8.47;4.73;;;1.30;99.90;;;;;;5032329;28;20236;-87
2021/12/10 10:48:50;;;;;;;14.13;6.87;;;1.30;99.90;;;;;;5015253;28;20206;-87
2021/12/10 10:51:25;;;;;;;13.93;7.93;;;1.40;99.90;;;;;;5015867;28;20182;-87
2021/12/10 10:53:53;;;;;;;12.93;8.70;;;1.40;99.90;;;;;;5012189;28;20182;-87
2021/12/10 10:56:34;;;;;;;15.00;7.70;;;1.50;99.90;;;;;;5006085;28;20182;-87
2021/12/10 10:59:13;;;;;;;9.43;5.63;;;1.50;99.90;;;;;;5015465;28;20204;-87
2021/12/10 11:01:46;;;;;;;7.50;5.00;;;1.50;99.90;;;;;;5015727;28;20192;-87
2021/12/10 11:04:34;;;;;;;8.03;4.90;;;1.60;99.90;;;;;;5015566;28;20532;-87
2021/12/10 11:07:07;;;;;;;7.37;4.37;;;1.60;99.90;;;;;;5015470;28;20272;-87
2021/12/10 11:10:07;;;;;;;8.53;4.77;;;1.60;99.90;;;;;;5001464;28;20207;-87
2021/12/10 11:12:40;;;;;;;6.07;4.30;;;1.60;99.90;;;;;;5000534;28;20316;-87
2021/12/10 11:15:13;;;;;;;11.13;5.27;;;1.60;99.90;;;;;;5016689;28;20185;-87
2021/12/10 11:17:45;;;;;;;9.33;5.03;;;1.70;99.90;;;;;;5016099;28;20184;-87
2021/12/10 11:20:20;;;;;;;8.90;4.97;;;1.70;99.90;;;;;;5015676;28;20202;-87
2021/12/10 11:22:56;;;;;;;7.37;4.33;;;1.70;99.90;;;;;;5016129;28;20174;-87
2021/12/10 11:25:43;;;;;;;9.17;4.70;;;1.70;99.90;;;;;;4999682;28;20166;-87
2021/12/10 11:28:11;;;;;;;5.83;4.03;;;1.70;99.90;;;;;;5015622;28;20205;-87
2021/12/10 11:30:42;;;;;;;6.47;3.70;;;1.80;99.90;;;;;;5005872;28;20174;-87
2021/12/10 11:33:18;;;;;;;6.87;3.60;;;1.80;99.90;;;;;;5020940;28;20286;-87
2021/12/10 11:35:52;;;;;;;4.63;2.90;;;1.80;99.90;;;;;;5035066;28;20198;-88
2021/12/10 11:38:22;;;;;;;6.83;3.27;;;1.90;99.90;;;;;;5018815;28;20231;-88
2021/12/10 11:40:49;;;;;;;5.73;3.27;;;1.90;99.90;;;;;;5018712;28;20226;-88
2021/12/10 11:48:38;;;;;;;7.40;4.53;;;2.00;99.90;;;;;;5035062;28;20201;-89
2021/12/10 11:51:25;;;;;;;9.43;5.13;;;2.10;99.90;;;;;;5018351;28;20297;-88
2021/12/10 11:53:55;;;;;;;7.03;4.10;;;2.10;99.90;;;;;;5018879;28;20179;-88
2021/12/10 11:56:28;;;;;;;6.93;4.30;;;2.20;99.90;;;;;;5018935;28;20585;-87
2021/12/10 11:59:03;;;;;;;9.60;8.60;;;2.20;99.90;;;;;;5018560;28;20207;-87
2021/12/10 12:02:07;;;;;;;8.93;6.93;;;2.20;99.90;;;;;;5018447;28;20229;-88
2021/12/10 12:04:41;;;;;;;11.77;10.10;;;2.20;99.90;;;;;;5014948;28;20233;-87
2021/12/10 12:10:40;;;;;;;4.37;3.70;;;2.20;99.90;;;;;;5034461;28;20177;-87
2021/12/10 12:15:55;;;;;;;5.50;2.40;;;2.30;99.90;;;;;;5034520;28;20216;-88
2021/12/10 12:18:29;;;;;;;4.57;2.20;;;2.30;99.90;;;;;;5018015;28;20190;-88
2021/12/10 12:21:01;;;;;;;6.50;4.07;;;2.30;99.90;;;;;;5017223;28;20198;-87
2021/12/10 12:26:29;;;;;;;3.93;2.27;;;2.30;99.90;;;;;;5034578;28;20167;-88
2021/12/10 12:29:08;;;;;;;3.57;2.17;;;2.30;99.90;;;;;;5018125;28;20205;-88
2021/12/10 12:31:36;;;;;;;3.03;2.03;;;2.30;99.90;;;;;;5017914;28;20174;-88
2021/12/10 12:34:10;;;;;;;2.90;2.17;;;2.30;99.90;;;;;;5035527;28;20180;-88
2021/12/10 12:36:52;;;;;;;3.40;2.67;;;2.30;99.90;;;;;;5017674;28;20184;-88
2021/12/10 12:39:31;;;;;;;4.23;2.30;;;2.30;99.90;;;;;;5017520;28;20190;-88
2021/12/10 12:42:01;;;;;;;3.50;2.40;;;2.20;99.90;;;;;;5033947;28;20206;-88
2021/12/10 12:44:39;;;;;;;8.37;6.37;;;2.20;99.90;;;;;;5017100;28;20214;-88
2021/12/10 12:47:37;;;;;;;7.70;5.30;;;2.20;99.90;;;;;;5031586;28;20197;-88
2021/12/10 12:50:19;;;;;;;5.50;3.60;;;2.20;99.90;;;;;;5016825;28;20213;-88
2021/12/10 12:53:06;;;;;;;4.57;3.00;;;2.20;99.90;;;;;;5016435;28;20175;-88
2021/12/10 12:55:44;;;;;;;3.53;2.33;;;2.20;99.90;;;;;;5046578;28;20186;-88
2021/12/10 12:58:12;;;;;;;5.63;2.87;;;2.20;99.90;;;;;;5014670;28;20198;-88
2021/12/10 13:01:04;;;;;;;3.07;2.40;;;2.20;99.90;;;;;;5033085;28;20281;-88
2021/12/10 13:03:45;;;;;;;4.90;2.73;;;2.20;99.90;;;;;;5012723;28;20248;-88
2021/12/10 13:06:23;;;;;;;3.57;2.30;;;2.10;99.90;;;;;;5016854;28;20170;-89
2021/12/10 13:09:04;;;;;;;2.73;2.13;;;2.10;99.90;;;;;;5016509;28;20251;-88
2021/12/10 13:11:47;;;;;;;5.57;3.23;;;2.10;99.90;;;;;;5016984;28;20182;-89
2021/12/10 13:14:17;;;;;;;3.67;2.90;;;2.10;99.90;;;;;;5027792;28;20175;-88
2021/12/10 13:16:49;;;;;;;5.50;3.50;;;2.20;99.90;;;;;;5001240;28;20189;-88
2021/12/10 13:19:28;;;;;;;4.03;3.07;;;2.20;99.90;;;;;;5015903;28;20203;-88
2021/12/10 13:22:06;;;;;;;4.33;3.10;;;2.20;99.90;;;;;;5033484;28;20237;-88
2021/12/10 13:24:38;;;;;;;4.73;2.47;;;2.20;99.90;;;;;;5016684;28;20174;-88
2021/12/10 13:27:07;;;;;;;4.40;2.80;;;2.30;99.90;;;;;;5016599;28;20190;-88
2021/12/10 13:29:34;;;;;;;5.07;3.33;;;2.30;99.90;;;;;;5015831;28;20202;-88
2021/12/10 13:32:03;;;;;;;5.63;2.97;;;2.40;99.90;;;;;;5016591;28;20213;-88
2021/12/10 13:34:30;;;;;;;4.30;2.70;;;2.40;99.90;;;;;;5015920;28;20186;-88